Time;durP1;ratioP1;P1;durP2;ratioP2;P2;SDS_P1;SDS_P2;PMS_P1;PMS_P2;Temp;Humidity;BMP_temperature;BMP_pressure;BME280_temperature;BME280_humidity;BME280_pressure;Samples;Min_cycle;Max_cycle;Signal;HPM_P1;HPM_P2
2022/07/20 00:00:39;;;;;;;2.72;2.13;;;24.80;68.10;;;;;;5049676;28;20498;-78
2022/07/20 00:03:07;;;;;;;3.53;2.15;;;24.80;68.10;;;;;;5061556;28;20037;-76
2022/07/20 00:05:33;;;;;;;4.50;2.00;;;24.80;68.00;;;;;;5072291;28;20028;-76
2022/07/20 00:07:59;;;;;;;3.33;2.05;;;24.70;67.60;;;;;;5062468;28;20040;-76
2022/07/20 00:13:13;;;;;;;3.70;1.65;;;24.70;68.20;;;;;;5060873;28;20300;-75
2022/07/20 00:15:39;;;;;;;3.25;1.77;;;24.70;68.10;;;;;;5057970;28;20041;-76
2022/07/20 00:18:05;;;;;;;3.30;2.38;;;24.70;68.10;;;;;;5059331;28;20036;-75
2022/07/20 00:20:30;;;;;;;2.08;1.83;;;24.70;68.10;;;;;;5034298;28;20040;-77
2022/07/20 00:22:58;;;;;;;5.72;2.20;;;24.60;68.20;;;;;;5067988;28;20040;-76
2022/07/20 00:25:25;;;;;;;5.88;1.83;;;24.60;68.10;;;;;;5071609;28;20507;-78
2022/07/20 00:27:50;;;;;;;2.53;2.20;;;24.60;67.90;;;;;;5050984;28;20444;-77
2022/07/20 00:30:16;;;;;;;2.20;2.00;;;24.60;68.30;;;;;;5075678;28;20063;-76
2022/07/20 00:32:42;;;;;;;3.50;2.20;;;24.60;68.80;;;;;;5054485;28;20048;-76
2022/07/20 00:35:11;;;;;;;3.55;1.90;;;24.50;68.60;;;;;;5072615;28;20511;-76
2022/07/20 00:37:37;;;;;;;3.47;2.10;;;24.50;68.60;;;;;;5034711;28;20067;-76
2022/07/20 00:40:05;;;;;;;3.28;2.10;;;24.40;68.70;;;;;;5053440;28;20472;-76
2022/07/20 00:42:35;;;;;;;4.47;1.92;;;24.40;68.80;;;;;;5062029;28;20129;-76
2022/07/20 00:45:02;;;;;;;8.55;1.92;;;24.60;69.00;;;;;;5073928;28;20037;-76
2022/07/20 00:47:27;;;;;;;5.30;2.13;;;24.30;69.20;;;;;;5036979;28;20178;-76
2022/07/20 00:49:53;;;;;;;7.15;2.65;;;24.30;68.90;;;;;;5070518;28;20037;-77
2022/07/20 00:52:19;;;;;;;4.25;1.73;;;24.20;69.10;;;;;;5070556;28;20048;-77
2022/07/20 00:54:48;;;;;;;5.78;2.35;;;24.20;69.20;;;;;;5041908;28;20063;-77
2022/07/20 00:57:15;;;;;;;6.93;2.15;;;24.20;69.10;;;;;;5064840;28;20048;-76
2022/07/20 00:59:41;;;;;;;6.60;2.28;;;24.10;69.20;;;;;;5077418;28;20041;-77
2022/07/20 01:02:07;;;;;;;5.88;2.45;;;24.10;69.50;;;;;;5052303;28;20409;-76
2022/07/20 01:04:33;;;;;;;3.25;1.58;;;24.10;69.90;;;;;;5057045;28;20043;-77
2022/07/20 01:06:58;;;;;;;9.07;1.95;;;24.00;69.90;;;;;;5056298;28;20517;-77
2022/07/20 01:09:24;;;;;;;4.25;1.70;;;24.00;69.70;;;;;;5064689;28;20451;-77
2022/07/20 01:11:50;;;;;;;2.53;1.83;;;24.00;69.80;;;;;;5063216;28;20047;-77
2022/07/20 01:14:16;;;;;;;4.40;1.70;;;24.00;69.70;;;;;;5041844;28;20048;-75
2022/07/20 01:16:42;;;;;;;5.60;1.98;;;23.90;69.90;;;;;;5076497;28;20472;-77
2022/07/20 01:19:08;;;;;;;5.25;2.22;;;23.90;70.00;;;;;;5068774;28;20044;-77
2022/07/20 01:21:40;;;;;;;3.85;2.50;;;23.90;70.10;;;;;;5051278;28;20127;-76
2022/07/20 01:24:09;;;;;;;3.38;1.70;;;23.80;69.70;;;;;;5072646;28;20040;-76
2022/07/20 01:26:38;;;;;;;2.75;1.75;;;23.80;70.10;;;;;;5034404;28;20028;-76
2022/07/20 01:29:04;;;;;;;3.85;2.20;;;23.70;70.10;;;;;;5051850;28;20759;-75
2022/07/20 01:31:30;;;;;;;6.28;1.85;;;23.60;69.70;;;;;;5035213;28;20037;-76
2022/07/20 01:33:55;;;;;;;6.28;2.40;;;23.60;69.80;;;;;;5047567;28;20488;-76
2022/07/20 01:36:21;;;;;;;4.05;2.20;;;23.60;69.90;;;;;;5064111;28;20075;-77
2022/07/20 01:38:47;;;;;;;3.80;2.00;;;23.60;69.90;;;;;;5071998;28;20102;-75
2022/07/20 01:41:12;;;;;;;4.18;1.90;;;23.60;70.00;;;;;;5059576;28;20364;-76
2022/07/20 01:43:38;;;;;;;4.13;2.13;;;23.50;70.00;;;;;;5040976;28;20051;-75
2022/07/20 01:46:03;;;;;;;3.47;2.00;;;23.60;69.80;;;;;;5051267;28;20052;-75
2022/07/20 01:48:29;;;;;;;3.63;2.03;;;23.50;69.90;;;;;;5073426;28;20051;-76
2022/07/20 01:50:55;;;;;;;7.15;2.58;;;23.40;69.60;;;;;;5058516;28;20440;-76
2022/07/20 01:53:21;;;;;;;6.45;1.90;;;23.40;69.90;;;;;;5057939;28;20085;-76
2022/07/20 01:55:46;;;;;;;6.03;2.08;;;23.40;70.00;;;;;;5079382;28;20035;-77
2022/07/20 01:58:12;;;;;;;5.78;2.03;;;23.40;70.10;;;;;;5059673;28;20050;-77
2022/07/20 02:00:37;;;;;;;5.97;2.05;;;23.50;70.20;;;;;;5076420;28;20381;-76
2022/07/20 02:03:03;;;;;;;5.20;1.95;;;23.40;70.00;;;;;;5035912;28;20045;-76
2022/07/20 02:05:29;;;;;;;3.75;1.95;;;23.30;69.80;;;;;;5068827;28;20034;-76
2022/07/20 02:07:55;;;;;;;5.30;1.98;;;23.30;70.20;;;;;;5072309;28;20511;-76
2022/07/20 02:10:20;;;;;;;3.50;2.05;;;23.30;70.40;;;;;;5051160;28;20071;-75
2022/07/20 02:12:46;;;;;;;8.93;2.22;;;23.30;70.40;;;;;;5052750;28;20052;-76
2022/07/20 02:16:14;;;;;;;4.25;2.13;;;23.70;70.80;;;;;;5056276;28;20029;-76
2022/07/20 02:18:03;;;;;;;2.40;2.20;;;23.30;70.50;;;;;;5068008;28;20036;-76
2022/07/20 02:20:28;;;;;;;7.32;2.10;;;23.20;70.40;;;;;;5071371;28;20055;-76
2022/07/20 02:22:54;;;;;;;5.22;2.22;;;23.20;70.50;;;;;;5046168;28;20033;-77
2022/07/20 02:25:19;;;;;;;4.50;1.90;;;23.20;70.40;;;;;;5068185;28;20041;-77
2022/07/20 02:27:45;;;;;;;12.95;2.90;;;23.20;70.60;;;;;;5074884;28;20048;-76
2022/07/20 02:30:11;;;;;;;4.10;2.20;;;23.20;70.40;;;;;;5059383;28;20090;-77
2022/07/20 02:32:37;;;;;;;5.50;2.20;;;23.00;70.70;;;;;;5074883;28;20149;-77
2022/07/20 02:35:03;;;;;;;5.30;2.08;;;23.10;70.80;;;;;;5086588;28;20035;-76
2022/07/20 02:37:28;;;;;;;3.90;2.58;;;23.10;70.80;;;;;;5046570;28;20045;-77
2022/07/20 02:39:54;;;;;;;7.13;2.50;;;23.00;70.90;;;;;;5045905;28;20074;-76
2022/07/20 02:42:22;;;;;;;2.72;2.13;;;23.00;71.10;;;;;;5060697;28;20400;-77
2022/07/20 02:44:47;;;;;;;4.00;2.30;;;23.00;71.10;;;;;;5078388;28;20075;-76
2022/07/20 02:47:13;;;;;;;5.35;2.00;;;23.00;70.90;;;;;;5054986;28;20052;-76
2022/07/20 02:49:39;;;;;;;7.20;2.20;;;22.90;70.90;;;;;;5074135;28;20143;-77
2022/07/20 02:52:04;;;;;;;7.90;2.40;;;22.90;70.80;;;;;;5038843;28;20422;-76
2022/07/20 02:54:30;;;;;;;4.43;2.47;;;22.90;71.20;;;;;;5080600;28;20068;-76
2022/07/20 02:56:56;;;;;;;9.45;2.13;;;22.80;71.40;;;;;;5083214;28;20164;-77
2022/07/20 02:59:21;;;;;;;4.57;2.17;;;22.80;71.30;;;;;;5078326;28;20036;-76
2022/07/20 03:01:47;;;;;;;5.60;2.38;;;22.80;71.20;;;;;;5058754;28;20478;-77
2022/07/20 03:04:12;;;;;;;3.38;2.22;;;22.80;71.40;;;;;;5056686;28;20108;-77
2022/07/20 03:06:38;;;;;;;2.97;2.17;;;22.80;71.60;;;;;;5078669;28;20047;-77
2022/07/20 03:09:04;;;;;;;9.15;2.33;;;22.80;71.60;;;;;;5079789;28;20062;-77
2022/07/20 03:11:29;;;;;;;5.13;2.50;;;22.70;71.50;;;;;;5074379;28;20045;-77
2022/07/20 03:13:55;;;;;;;2.22;2.08;;;22.70;71.70;;;;;;5058928;28;20043;-77
2022/07/20 03:16:20;;;;;;;9.13;2.55;;;23.10;71.80;;;;;;5060326;28;20059;-76
2022/07/20 03:18:46;;;;;;;6.75;2.35;;;22.70;71.70;;;;;;5070733;28;20481;-77
2022/07/20 03:21:12;;;;;;;7.22;2.30;;;22.80;71.60;;;;;;5059252;28;20047;-77
2022/07/20 03:23:37;;;;;;;4.72;2.20;;;22.60;71.50;;;;;;5080745;28;20102;-77
2022/07/20 03:26:03;;;;;;;7.55;2.30;;;22.50;71.70;;;;;;5073652;28;20089;-77
2022/07/20 03:28:28;;;;;;;2.90;2.20;;;22.50;71.50;;;;;;5072736;28;20037;-75
2022/07/20 03:30:54;;;;;;;4.80;2.20;;;22.50;71.60;;;;;;5055280;28;20439;-76
2022/07/20 03:33:19;;;;;;;3.80;2.50;;;22.90;72.50;;;;;;5053913;28;20051;-77
2022/07/20 03:35:46;;;;;;;9.10;2.70;;;22.50;72.30;;;;;;5077841;28;20036;-76
2022/07/20 03:38:12;;;;;;;5.15;2.40;;;22.50;72.20;;;;;;5063763;28;20500;-77
2022/07/20 03:40:37;;;;;;;7.45;2.50;;;22.60;71.90;;;;;;5070383;28;20115;-76
2022/07/20 03:43:03;;;;;;;4.07;2.40;;;22.40;72.00;;;;;;5063837;28;20040;-76
2022/07/20 03:45:28;;;;;;;4.28;2.20;;;22.30;72.20;;;;;;5058656;28;20114;-77
2022/07/20 03:47:55;;;;;;;5.95;2.20;;;22.30;72.20;;;;;;5058965;28;20051;-76
2022/07/20 03:50:20;;;;;;;4.70;2.33;;;22.30;72.20;;;;;;5075913;28;20036;-76
2022/07/20 03:52:47;;;;;;;4.10;2.60;;;22.30;72.40;;;;;;5058750;28;20051;-76
2022/07/20 03:55:13;;;;;;;5.90;2.10;;;22.30;72.40;;;;;;5088842;28;20044;-76
2022/07/20 03:57:38;;;;;;;3.17;2.47;;;22.20;72.60;;;;;;5061293;28;20086;-77
2022/07/20 04:00:05;;;;;;;10.43;2.65;;;22.30;72.80;;;;;;5038022;28;20377;-77
2022/07/20 04:02:31;;;;;;;3.97;2.80;;;22.30;72.90;;;;;;5068485;28;20044;-76
2022/07/20 04:04:56;;;;;;;6.68;2.47;;;22.30;72.80;;;;;;5075923;28;20082;-74
2022/07/20 04:07:22;;;;;;;5.13;2.70;;;22.20;72.70;;;;;;5076474;28;20044;-76
2022/07/20 04:09:48;;;;;;;2.25;2.05;;;22.20;73.00;;;;;;5056003;28;20073;-75
2022/07/20 04:12:20;;;;;;;6.05;2.20;;;22.20;73.40;;;;;;5082738;28;20040;-75
2022/07/20 04:14:49;;;;;;;3.97;2.60;;;22.10;73.10;;;;;;5061105;28;20532;-75
2022/07/20 04:17:16;;;;;;;4.15;2.65;;;22.10;73.00;;;;;;5038026;28;20506;-76
2022/07/20 04:19:43;;;;;;;3.63;2.78;;;22.10;73.10;;;;;;5079552;28;20040;-74
2022/07/20 04:22:09;;;;;;;3.53;2.67;;;22.00;73.30;;;;;;5078752;28;20071;-75
2022/07/20 04:24:35;;;;;;;3.67;2.60;;;22.00;73.30;;;;;;5071952;28;20492;-76
2022/07/20 04:27:01;;;;;;;4.53;2.30;;;22.00;73.50;;;;;;5057183;28;20055;-75
2022/07/20 04:29:28;;;;;;;6.95;2.50;;;22.00;73.90;;;;;;5060305;28;20056;-75
2022/07/20 04:31:54;;;;;;;6.50;2.63;;;22.00;74.10;;;;;;5067983;28;20043;-76
2022/07/20 04:34:20;;;;;;;5.18;2.80;;;21.90;74.20;;;;;;5068799;28;20098;-76
2022/07/20 04:36:45;;;;;;;5.82;2.58;;;21.90;74.20;;;;;;5041424;28;20071;-77
2022/07/20 04:39:37;;;;;;;3.42;3.13;;;22.00;74.20;;;;;;5069333;28;20194;-73
2022/07/20 04:42:03;;;;;;;4.82;2.60;;;21.90;74.70;;;;;;5072788;28;20036;-75
2022/07/20 04:44:29;;;;;;;3.85;2.40;;;21.90;74.90;;;;;;5053665;28;20102;-75
2022/07/20 04:46:54;;;;;;;6.13;2.20;;;21.80;74.70;;;;;;5076132;28;20086;-76
2022/07/20 04:49:20;;;;;;;2.33;2.13;;;21.80;74.90;;;;;;5075620;28;20044;-76
2022/07/20 04:51:45;;;;;;;6.18;2.50;;;21.80;75.20;;;;;;5069771;28;20036;-76
2022/07/20 04:54:13;;;;;;;3.72;2.53;;;21.90;75.30;;;;;;5081106;28;20044;-75
2022/07/20 04:56:39;;;;;;;3.40;2.13;;;21.90;75.60;;;;;;5076822;28;20040;-76
2022/07/20 04:59:04;;;;;;;4.72;2.55;;;21.90;75.90;;;;;;5075734;28;20403;-76
2022/07/20 05:01:33;;;;;;;5.28;2.97;;;21.90;76.60;;;;;;5063347;28;20353;-77
2022/07/20 05:03:59;;;;;;;4.15;3.40;;;21.90;76.00;;;;;;5070851;28;20155;-76
2022/07/20 05:06:24;;;;;;;7.45;2.85;;;21.90;76.50;;;;;;5062108;28;20048;-75
2022/07/20 05:08:50;;;;;;;6.50;3.58;;;21.90;76.60;;;;;;5040932;28;20045;-76
2022/07/20 05:11:17;;;;;;;3.90;2.13;;;21.90;76.80;;;;;;5044131;28;20041;-75
2022/07/20 05:14:16;;;;;;;3.63;2.47;;;21.90;77.00;;;;;;5000314;28;20046;-75
2022/07/20 05:16:41;;;;;;;3.60;2.10;;;21.80;77.20;;;;;;4992768;28;20065;-76
2022/07/20 05:19:08;;;;;;;4.22;2.50;;;21.90;77.60;;;;;;5001977;28;20098;-76
2022/07/20 05:21:35;;;;;;;5.35;2.53;;;21.90;77.80;;;;;;5039581;28;20139;-76
2022/07/20 05:24:01;;;;;;;3.45;2.28;;;22.00;78.30;;;;;;5061619;28;20028;-77
2022/07/20 05:26:26;;;;;;;5.22;2.65;;;22.00;78.10;;;;;;5062649;28;20040;-76
2022/07/20 05:28:52;;;;;;;5.18;2.58;;;22.00;78.20;;;;;;5061192;28;20051;-77
2022/07/20 05:31:18;;;;;;;5.38;2.80;;;22.00;78.10;;;;;;5057895;28;20086;-76
2022/07/20 05:33:44;;;;;;;5.97;2.17;;;22.00;77.50;;;;;;5051501;28;20036;-76
2022/07/20 05:36:10;;;;;;;7.53;3.15;;;22.20;77.00;;;;;;5072074;28;20127;-75
2022/07/20 05:38:36;;;;;;;3.20;2.60;;;22.20;76.70;;;;;;5065882;28;20040;-75
2022/07/20 05:41:02;;;;;;;5.10;2.50;;;22.30;76.50;;;;;;5077010;28;20043;-77
2022/07/20 05:43:28;;;;;;;3.03;2.40;;;22.30;76.30;;;;;;5043909;28;20113;-77
2022/07/20 05:45:56;;;;;;;3.90;2.38;;;22.40;76.00;;;;;;5056893;28;20551;-76
2022/07/20 05:48:21;;;;;;;9.25;3.55;;;22.40;75.70;;;;;;5061198;28;20049;-76
2022/07/20 05:50:47;;;;;;;16.77;8.07;;;22.50;75.70;;;;;;5071567;28;20037;-76
2022/07/20 05:53:13;;;;;;;4.25;2.67;;;22.60;76.10;;;;;;5075445;28;20099;-75
2022/07/20 05:55:41;;;;;;;6.10;2.95;;;22.60;75.90;;;;;;5055825;28;20047;-77
2022/07/20 05:58:08;;;;;;;3.95;2.53;;;22.70;75.80;;;;;;5074599;28;20075;-76
2022/07/20 06:00:34;;;;;;;9.23;2.70;;;22.70;75.90;;;;;;5060613;28;20086;-77
2022/07/20 06:03:00;;;;;;;2.40;2.10;;;22.80;75.50;;;;;;5073095;28;20047;-77
2022/07/20 06:05:26;;;;;;;4.75;2.95;;;22.90;75.20;;;;;;5074676;28;20033;-77
2022/07/20 06:07:57;;;;;;;5.30;2.55;;;23.00;74.90;;;;;;5074906;28;20492;-77
2022/07/20 06:10:23;;;;;;;9.13;3.53;;;23.00;74.60;;;;;;5058918;28;20078;-78
2022/07/20 06:12:49;;;;;;;3.58;2.90;;;23.10;74.60;;;;;;5067127;28;20040;-76
2022/07/20 06:15:15;;;;;;;8.27;2.78;;;23.20;74.30;;;;;;5069847;28;20129;-73
2022/07/20 06:17:41;;;;;;;7.30;3.05;;;23.30;74.10;;;;;;5060185;28;20040;-73
2022/07/20 06:20:12;;;;;;;7.50;2.60;;;23.40;74.20;;;;;;5063965;28;20206;-75
2022/07/20 06:22:39;;;;;;;4.85;2.55;;;23.50;74.80;;;;;;4382683;28;10000729;-73
2022/07/20 06:25:07;;;;;;;4.65;2.50;;;23.50;74.40;;;;;;5066449;28;20024;-73
2022/07/20 06:27:32;;;;;;;2.92;2.60;;;23.50;74.10;;;;;;5059178;28;20058;-73
2022/07/20 06:29:59;;;;;;;6.32;2.85;;;23.60;74.10;;;;;;5078309;28;20044;-73
2022/07/20 06:32:25;;;;;;;7.70;3.08;;;23.60;74.10;;;;;;5068025;28;20033;-73
2022/07/20 06:34:51;;;;;;;11.45;3.20;;;23.70;73.50;;;;;;5066217;28;20053;-72
2022/07/20 06:37:17;;;;;;;3.85;2.83;;;23.70;73.20;;;;;;5062204;28;20036;-73
2022/07/20 06:39:42;;;;;;;4.00;2.78;;;23.90;72.80;;;;;;5065272;28;20439;-75
2022/07/20 06:42:08;;;;;;;5.88;3.22;;;23.90;72.80;;;;;;5065041;28;20048;-75
2022/07/20 06:44:34;;;;;;;8.23;3.25;;;24.00;73.10;;;;;;5067397;28;20037;-78
2022/07/20 06:47:00;;;;;;;6.32;2.97;;;24.00;73.30;;;;;;5071528;28;20391;-78
2022/07/20 06:49:26;;;;;;;10.48;3.50;;;24.10;73.30;;;;;;5048616;28;20563;-76
2022/07/20 06:51:52;;;;;;;8.40;2.85;;;24.10;73.40;;;;;;5068164;28;20531;-77
2022/07/20 06:54:18;;;;;;;9.60;3.33;;;24.20;73.50;;;;;;5077487;28;20045;-80
2022/07/20 06:56:43;;;;;;;16.23;4.05;;;24.20;73.50;;;;;;5072795;28;20578;-79
2022/07/20 06:59:09;;;;;;;6.28;3.63;;;24.30;74.00;;;;;;5058933;28;20032;-79
2022/07/20 07:01:35;;;;;;;12.32;3.17;;;24.40;74.00;;;;;;5073042;28;20072;-75
2022/07/20 07:04:00;;;;;;;10.60;3.40;;;24.50;74.10;;;;;;5040480;28;20044;-77
2022/07/20 07:06:28;;;;;;;9.90;4.40;;;24.50;74.10;;;;;;5072668;28;20476;-77
2022/07/20 07:08:55;;;;;;;6.00;3.47;;;24.70;74.10;;;;;;5055879;28;20059;-79
2022/07/20 07:11:20;;;;;;;6.22;4.07;;;24.60;74.20;;;;;;5075793;28;20037;-80
2022/07/20 07:13:46;;;;;;;10.82;6.53;;;24.70;74.50;;;;;;5074573;28;20044;-77
2022/07/20 07:16:12;;;;;;;11.25;4.95;;;24.80;74.30;;;;;;5075722;28;20430;-76
2022/07/20 07:18:37;;;;;;;9.32;4.78;;;24.90;74.60;;;;;;5071671;28;20109;-77
2022/07/20 07:21:04;;;;;;;8.50;5.35;;;24.90;75.00;;;;;;5081001;28;20032;-77
2022/07/20 07:23:29;;;;;;;13.98;5.25;;;24.90;75.20;;;;;;5079719;28;20048;-75
2022/07/20 07:25:55;;;;;;;12.65;5.10;;;25.00;75.70;;;;;;5041261;28;20046;-74
2022/07/20 07:28:21;;;;;;;11.27;5.82;;;25.00;75.80;;;;;;5062560;28;20071;-73
2022/07/20 07:30:46;;;;;;;7.40;5.82;;;25.00;76.20;;;;;;5065163;28;20035;-73
2022/07/20 07:33:12;;;;;;;12.15;5.55;;;25.10;76.80;;;;;;5078252;28;20125;-73
2022/07/20 07:35:38;;;;;;;12.95;5.15;;;25.10;77.00;;;;;;5061599;28;20045;-72
2022/07/20 07:38:03;;;;;;;11.10;6.38;;;25.10;77.30;;;;;;5080091;28;20825;-73
2022/07/20 07:40:29;;;;;;;13.50;5.68;;;25.10;77.70;;;;;;5081923;28;20065;-72
2022/07/20 07:42:54;;;;;;;13.48;6.38;;;25.20;78.30;;;;;;5080002;28;20094;-74
2022/07/20 07:45:20;;;;;;;12.60;6.75;;;25.20;78.80;;;;;;5084009;28;20092;-75
2022/07/20 07:47:47;;;;;;;10.25;7.00;;;25.30;78.90;;;;;;5069904;28;20171;-75
2022/07/20 07:50:13;;;;;;;12.88;6.80;;;25.20;79.10;;;;;;5077246;28;20051;-76
2022/07/20 07:52:38;;;;;;;12.13;7.68;;;25.40;79.70;;;;;;5077370;28;20157;-75
2022/07/20 07:55:05;;;;;;;13.88;8.07;;;25.50;80.40;;;;;;5079861;28;20037;-75
2022/07/20 07:57:30;;;;;;;10.27;7.65;;;25.50;80.90;;;;;;5075049;28;20047;-75
2022/07/20 07:59:56;;;;;;;11.38;7.78;;;25.60;81.10;;;;;;5071726;28;20033;-73
2022/07/20 08:02:22;;;;;;;9.65;7.72;;;25.60;81.70;;;;;;5070876;28;20044;-73
2022/07/20 08:04:48;;;;;;;13.98;7.80;;;25.70;82.00;;;;;;5073774;28;20122;-73
2022/07/20 08:07:13;;;;;;;17.85;9.43;;;25.80;82.30;;;;;;5076564;28;20043;-72
2022/07/20 08:09:39;;;;;;;11.35;8.50;;;25.80;82.80;;;;;;5076386;28;20041;-75
2022/07/20 08:12:05;;;;;;;21.35;9.57;;;25.90;83.50;;;;;;5064433;28;20045;-73
2022/07/20 08:14:30;;;;;;;11.02;9.32;;;26.00;84.20;;;;;;5072644;28;20043;-72
2022/07/20 08:16:56;;;;;;;14.82;10.52;;;26.00;84.60;;;;;;5044459;28;20488;-74
2022/07/20 08:19:22;;;;;;;18.05;11.48;;;26.10;85.10;;;;;;5086435;28;20641;-72
2022/07/20 08:21:47;;;;;;;15.55;10.30;;;26.10;85.70;;;;;;5070798;28;20499;-74
2022/07/20 08:24:14;;;;;;;17.13;10.70;;;26.20;86.00;;;;;;5077760;28;20051;-75
2022/07/20 08:26:40;;;;;;;21.70;12.15;;;26.20;87.00;;;;;;5068900;28;20091;-74
2022/07/20 08:29:06;;;;;;;24.60;11.85;;;26.20;87.40;;;;;;5069514;28;20579;-73
2022/07/20 08:31:31;;;;;;;19.98;14.70;;;26.30;88.20;;;;;;5048887;28;20384;-73
2022/07/20 08:33:57;;;;;;;18.13;13.35;;;26.40;89.10;;;;;;5060590;28;20481;-72
2022/07/20 08:36:23;;;;;;;22.35;13.85;;;26.40;90.00;;;;;;5078716;28;20033;-72
2022/07/20 08:38:48;;;;;;;23.17;15.75;;;26.40;90.50;;;;;;5078350;28;20489;-74
2022/07/20 08:41:15;;;;;;;24.88;15.88;;;26.50;90.90;;;;;;5076776;28;20506;-73
2022/07/20 08:43:42;;;;;;;28.45;16.08;;;26.40;91.40;;;;;;5071192;28;20044;-71
2022/07/20 08:46:07;;;;;;;26.50;18.00;;;26.50;92.10;;;;;;5077311;28;20041;-74
2022/07/20 08:48:35;;;;;;;26.88;17.42;;;26.50;92.60;;;;;;5064591;28;20049;-73
2022/07/20 08:51:01;;;;;;;26.58;16.38;;;26.60;93.30;;;;;;5066523;28;20040;-73
2022/07/20 08:53:27;;;;;;;35.65;18.00;;;26.60;93.40;;;;;;5085102;28;20508;-76
2022/07/20 08:55:52;;;;;;;26.38;18.33;;;26.60;93.20;;;;;;5079803;28;20036;-76
2022/07/20 08:58:18;;;;;;;24.05;16.95;;;26.70;93.30;;;;;;5077551;28;20059;-77
2022/07/20 09:00:44;;;;;;;30.02;18.60;;;26.70;93.50;;;;;;5073296;28;20067;-76
2022/07/20 09:03:11;;;;;;;25.17;17.02;;;26.70;94.00;;;;;;5061316;28;20135;-76
2022/07/20 09:05:39;;;;;;;31.45;19.27;;;26.80;94.30;;;;;;5047065;28;20044;-75
2022/07/20 09:08:06;;;;;;;29.80;17.70;;;26.80;94.70;;;;;;5083090;28;20036;-77
2022/07/20 09:10:37;;;;;;;25.13;18.13;;;26.80;94.90;;;;;;5079875;28;20044;-77
2022/07/20 09:13:13;;;;;;;28.95;17.67;;;26.90;95.30;;;;;;5078573;28;20120;-77
2022/07/20 09:15:39;;;;;;;30.15;18.83;;;27.00;95.20;;;;;;5068020;28;20080;-77
2022/07/20 09:18:09;;;;;;;27.77;18.25;;;27.00;95.50;;;;;;5065573;28;20450;-76
2022/07/20 09:20:37;;;;;;;32.22;18.13;;;27.00;95.70;;;;;;5067820;28;20622;-76
2022/07/20 09:23:15;;;;;;;25.58;18.25;;;27.10;96.30;;;;;;5073197;28;20112;-76
2022/07/20 09:25:56;;;;;;;27.10;18.08;;;27.10;96.00;;;;;;5070331;28;20126;-77
2022/07/20 09:28:25;;;;;;;23.80;18.40;;;27.20;96.10;;;;;;5079814;28;20494;-77
2022/07/20 09:30:54;;;;;;;24.95;18.95;;;27.30;96.00;;;;;;5080280;28;20032;-77
2022/07/20 09:33:28;;;;;;;27.08;19.63;;;27.30;95.80;;;;;;5079027;28;20496;-77
2022/07/20 09:35:55;;;;;;;31.70;18.90;;;27.30;95.70;;;;;;5072894;28;20036;-78
2022/07/20 09:38:51;;;;;;;28.92;19.35;;;27.30;95.10;;;;;;5069143;28;20068;-78
2022/07/20 09:41:36;;;;;;;32.55;19.63;;;27.30;95.20;;;;;;5045485;28;20155;-77
2022/07/20 09:44:06;;;;;;;27.55;19.05;;;27.30;95.90;;;;;;5071189;28;20051;-78
2022/07/20 09:46:35;;;;;;;24.33;18.23;;;27.30;96.20;;;;;;5059837;28;20046;-79
2022/07/20 09:49:06;;;;;;;29.25;19.02;;;27.30;94.90;;;;;;5075075;28;20078;-78
2022/07/20 09:51:47;;;;;;;23.27;18.70;;;27.40;94.40;;;;;;5060398;28;20075;-77
2022/07/20 09:54:15;;;;;;;23.45;17.85;;;27.20;94.60;;;;;;5067511;28;20079;-78
2022/07/20 09:56:43;;;;;;;28.88;17.85;;;27.30;94.40;;;;;;5065048;28;20053;-76
2022/07/20 09:59:13;;;;;;;27.17;17.02;;;27.30;93.50;;;;;;5068536;28;20249;-77
2022/07/20 10:01:42;;;;;;;25.08;16.17;;;27.30;93.00;;;;;;5072874;28;20055;-79
2022/07/20 10:04:09;;;;;;;23.80;16.70;;;27.30;92.60;;;;;;5068401;28;20123;-80
2022/07/20 10:06:37;;;;;;;18.75;15.85;;;27.40;92.50;;;;;;5077189;28;20380;-80
2022/07/20 10:09:04;;;;;;;22.77;15.82;;;27.40;91.80;;;;;;5071337;28;20041;-80
2022/07/20 10:11:30;;;;;;;23.42;15.35;;;27.40;91.50;;;;;;5078570;28;20040;-79
2022/07/20 10:13:58;;;;;;;21.92;15.07;;;27.50;91.00;;;;;;5058111;28;20040;-79
2022/07/20 10:16:27;;;;;;;22.17;14.80;;;27.70;90.20;;;;;;5080693;28;20036;-77
2022/07/20 10:18:54;;;;;;;19.95;14.07;;;27.50;89.60;;;;;;5070779;28;20037;-77
2022/07/20 10:21:39;;;;;;;20.45;13.80;;;27.50;89.60;;;;;;5070467;28;20047;-77
2022/07/20 10:24:30;;;;;;;17.83;12.48;;;27.50;88.90;;;;;;5064022;28;20040;-78
2022/07/20 10:27:02;;;;;;;25.58;12.73;;;27.40;88.90;;;;;;5061134;28;20091;-76
2022/07/20 10:29:29;;;;;;;19.35;11.50;;;27.40;89.60;;;;;;5065188;28;20078;-75
2022/07/20 10:31:58;;;;;;;17.52;11.30;;;27.40;89.20;;;;;;5058708;28;20396;-79
2022/07/20 10:34:34;;;;;;;18.92;9.98;;;27.40;89.30;;;;;;5056410;28;20053;-76
2022/07/20 10:37:24;;;;;;;13.65;9.50;;;27.50;87.50;;;;;;5068198;28;20040;-75
2022/07/20 10:40:11;;;;;;;17.27;9.97;;;27.50;86.90;;;;;;5064445;28;20673;-74
2022/07/20 10:42:41;;;;;;;16.10;9.25;;;27.50;86.00;;;;;;5062777;28;20052;-77
2022/07/20 10:45:23;;;;;;;16.58;9.13;;;27.50;86.40;;;;;;5076961;28;20485;-78
2022/07/20 10:48:16;;;;;;;12.80;9.57;;;27.50;87.00;;;;;;5069377;28;20068;-77
2022/07/20 10:50:50;;;;;;;15.35;8.85;;;27.50;85.30;;;;;;5072746;28;20044;-78
2022/07/20 10:53:15;;;;;;;19.60;9.43;;;27.50;85.70;;;;;;5076058;28;20082;-77
2022/07/20 10:55:52;;;;;;;14.57;8.68;;;27.60;85.40;;;;;;5075883;28;20111;-75
2022/07/20 10:58:23;;;;;;;17.35;9.05;;;27.60;85.90;;;;;;5077199;28;20626;-77
2022/07/20 11:01:01;;;;;;;16.92;9.80;;;27.60;86.10;;;;;;5078517;28;20065;-75
2022/07/20 11:03:30;;;;;;;16.80;8.90;;;27.50;86.90;;;;;;5021293;28;20040;-75
2022/07/20 11:06:08;;;;;;;13.85;10.05;;;27.60;87.90;;;;;;5071214;28;20035;-76
2022/07/20 11:08:40;;;;;;;21.48;9.43;;;27.60;87.70;;;;;;5061943;28;20087;-77
2022/07/20 11:11:13;;;;;;;15.48;9.93;;;27.70;87.70;;;;;;5065250;28;20045;-76
2022/07/20 11:13:38;;;;;;;12.77;8.95;;;27.70;86.50;;;;;;5049457;28;20052;-75
2022/07/20 11:16:04;;;;;;;15.77;9.48;;;27.80;86.60;;;;;;5055893;28;20040;-76
2022/07/20 11:18:32;;;;;;;16.65;9.43;;;27.80;86.80;;;;;;5072870;28;20041;-76
2022/07/20 11:21:07;;;;;;;16.58;9.25;;;28.00;87.70;;;;;;5077815;28;20051;-77
2022/07/20 11:23:44;;;;;;;15.50;9.52;;;28.00;87.20;;;;;;5077979;28;20476;-75
2022/07/20 11:26:11;;;;;;;13.82;9.02;;;28.10;86.70;;;;;;5064135;28;20120;-76
2022/07/20 11:28:42;;;;;;;16.40;9.80;;;28.20;85.10;;;;;;5067368;28;20032;-73
2022/07/20 11:31:07;;;;;;;10.55;8.85;;;28.40;84.60;;;;;;5070181;28;20378;-75
2022/07/20 11:33:38;;;;;;;17.70;10.55;;;28.40;84.40;;;;;;5068023;28;20079;-76
2022/07/20 11:36:06;;;;;;;12.95;8.80;;;28.50;85.40;;;;;;5074553;28;20539;-78
2022/07/20 11:38:42;;;;;;;15.93;10.52;;;28.60;83.70;;;;;;5069400;28;20044;-74
2022/07/20 11:41:30;;;;;;;16.05;8.32;;;28.60;82.80;;;;;;5069544;28;20120;-76
2022/07/20 11:43:57;;;;;;;12.73;8.60;;;28.60;82.60;;;;;;5034805;28;20037;-76
2022/07/20 11:46:25;;;;;;;14.45;7.55;;;28.50;82.20;;;;;;5069912;28;20086;-76
2022/07/20 11:48:55;;;;;;;15.68;7.70;;;28.60;80.20;;;;;;5047925;28;20049;-76
2022/07/20 11:51:21;;;;;;;8.75;7.75;;;28.60;80.70;;;;;;5065371;28;20079;-76
2022/07/20 11:53:47;;;;;;;10.45;7.18;;;28.60;80.90;;;;;;5063226;28;20036;-78
2022/07/20 11:56:31;;;;;;;13.55;7.85;;;28.70;81.60;;;;;;5052567;28;20101;-79
2022/07/20 11:58:58;;;;;;;;;;;28.80;81.70;;;;;;5073150;28;20044;-78
2022/07/20 12:01:30;;;;;;;9.07;5.95;;;28.90;79.20;;;;;;5071415;28;19920;-78
2022/07/20 12:04:00;;;;;;;10.73;6.20;;;29.00;77.00;;;;;;5060878;28;20066;-78
2022/07/20 12:06:28;;;;;;;14.10;6.85;;;29.00;77.40;;;;;;5068190;28;20052;-79
2022/07/20 12:09:16;;;;;;;11.38;6.85;;;29.10;77.20;;;;;;5053614;28;20044;-80
2022/07/20 12:12:02;;;;;;;11.48;6.45;;;29.20;77.90;;;;;;5070372;28;20477;-77
2022/07/20 12:14:37;;;;;;;8.93;7.35;;;29.30;76.10;;;;;;5075884;28;20044;-75
2022/07/20 12:17:19;;;;;;;13.50;6.45;;;29.30;76.40;;;;;;5073976;28;20046;-75
2022/07/20 12:19:47;;;;;;;12.30;6.80;;;29.40;77.70;;;;;;5067111;28;20052;-77
2022/07/20 12:22:30;;;;;;;11.13;6.10;;;29.40;77.40;;;;;;5062886;28;20542;-77
2022/07/20 12:24:59;;;;;;;11.38;7.05;;;29.50;75.20;;;;;;5052215;28;20579;-77
2022/07/20 12:27:28;;;;;;;13.68;7.88;;;29.50;74.50;;;;;;5076319;28;20166;-79
2022/07/20 12:29:55;;;;;;;15.10;8.00;;;29.40;73.70;;;;;;5064767;28;20046;-77
2022/07/20 12:32:35;;;;;;;13.25;8.05;;;29.40;74.40;;;;;;5049202;28;20048;-79
2022/07/20 12:35:04;;;;;;;8.57;7.32;;;29.50;73.90;;;;;;5064991;28;20048;-79
2022/07/20 12:37:50;;;;;;;14.05;7.50;;;29.40;74.40;;;;;;5067523;28;20404;-73
2022/07/20 12:40:39;;;;;;;18.98;7.80;;;29.40;74.90;;;;;;5070748;28;20182;-78
2022/07/20 12:43:26;;;;;;;9.10;6.32;;;29.40;75.10;;;;;;5069107;28;20088;-79
2022/07/20 12:45:53;;;;;;;11.80;6.57;;;29.40;76.30;;;;;;5072586;28;20448;-77
2022/07/20 12:48:18;;;;;;;10.02;6.32;;;29.40;76.20;;;;;;5077115;28;20059;-75